Impacts TAF Board
For situational awareness. Not to be used for flight planning purposes.
IDs:

KPDX - Portland Intl Arpt, OR, US

Issued at 1740 UTC 20 Jan 2019
Updated at 1810 UTC 20 Jan 2019
Potential Impact None Slight Moderate High
Time1753Z 20/19Z 20/20Z 20/21Z 20/22Z 20/23Z 21/00Z 21/01Z 21/02Z 21/03Z 21/04Z 21/05Z 21/06Z 21/07Z>>
Type OBS PRVL PRVL PRVL PRVL PRVL PRVL PRVL PRVL PRVL PRVL PRVL PRVL PRVL
VIS 9 5 5 5 5 5 5 5 >6 >6 >6 >6 >6 >6
CIG 39 15 15 15 15 15 15 15 50 50 50 50 50 50
Cover OVC OVC OVC OVC OVC OVC OVC OVC OVC OVC OVC OVC OVC OVC
FltCat VFR MVFR MVFR MVFR MVFR MVFR MVFR MVFR VFR VFR VFR VFR VFR VFR
WX -RA -RA BR -RA BR -RA BR -RA BR -RA BR -RA BR -RA BR -- -- -- -- -- --
WDir 300 VRB VRB VRB VRB VRB VRB VRB 310 310 310 310 310 310
WSpd 4 3 3 3 3 3 3 3 3 3 3 3 3 3
WGst -- -- -- -- -- -- -- -- -- -- -- -- -- --
Raw TAF
KPDX 201740Z 2018/2118 30004KT P6SM -RA VCFG FEW001 OVC035
  FM201900 VRB03KT 5SM -RA BR SCT007 BKN015 OVC035
  FM210200 31003KT P6SM SCT020 BKN050 OVC080
  FM210800 VRB02KT 1SM BR BKN008 OVC015
  FM211600 VRB03KT P6SM FEW008 BKN025


Raw METAR
KPDX 201753Z 30004KT 9SM -RA OVC039 07/05 A2991 RMK AO2 SLP126 P0004 60025 T00670050 10067 20056 53004
KPDX 201653Z 35005KT 9SM -RA OVC036 07/04 A2990 RMK AO2 SLP124 P0005 T00670044
KPDX 201553Z 35006KT 8SM -RA OVC033 07/04 A2990 RMK AO2 SLP122 P0007 T00670044

METAR Board
Radar Display
Forecast Discussion
For situational awareness. Not to be used for flight planning purposes.